Latest Coastal Weather Observations for Rosslyn Bay Harbour

IDQ60701

Issued at 7:25 am EST Thursday 31 July 2014 (issued every 10 minutes, with the page automatically refreshed every 10 minutes)

About coastal observations | Map of coastal stations | Coastal observations for QLD | Marine services | Other Formats
Station Details ID: 033208 Name: ROSSLYN BAY NTC AWS Lat: -23.16 Lon: 150.79 Height: 0.0 m
Data from the previous 72 hours. | See also: Recent months for locations in Queensland
Date/Time
EST
Temp

°C
Wind Pressure Rain
since 9am
mm
Weather Cloud Vis
km
Sea
Height
m
Swell
Dir
 
Speed
knots
Gust
knots
hPa Trend Height
m
Period
s
Dir
31/07:00am 16.3 S 7 9 1020.4 - - - - - - - - -
31/06:30am 16.0 S 4 7 1020.3 - - - - - - - - -
31/06:00am 15.9 S 4 6 1019.9 - - - - - - - - -
31/05:30am 15.9 S 4 6 1019.6 - - - - - - - - -
31/05:00am 16.1 S 4 6 1019.4 - - - - - - - - -
31/04:30am 16.1 S 4 5 1019.5 - - - - - - - - -
31/04:00am 16.6 S 6 7 1019.5 - - - - - - - - -
31/03:30am 16.6 S 5 7 1019.4 - - - - - - - - -
31/03:00am 16.6 S 4 6 1019.6 - - - - - - - - -
31/02:30am 16.6 S 4 6 1019.7 - - - - - - - - -
31/02:00am 17.0 S 5 6 1020.0 - - - - - - - - -
31/01:30am 16.9 S 4 5 1020.3 - - - - - - - - -
31/01:00am 17.1 S 5 6 1020.5 - - - - - - - - -
31/12:30am 16.9 S 5 5 1020.5 - - - - - - - - -
31/12:00am 17.3 S 4 5 1020.5 - - - - - - - - -
 
Date/Time
EST
Temp

°C
Wind Pressure Rain
since 9am
mm
Weather Cloud Vis
km
Sea
Height
m
Swell
Dir
 
Speed
knots
Gust
knots
hPa Trend Height
m
Period
s
Dir
30/11:30pm 17.5 S 3 4 1020.7 - - - - - - - - -
30/11:00pm 17.5 S 3 5 1020.7 - - - - - - - - -
30/10:30pm 17.5 S 5 5 1020.8 - - - - - - - - -
30/10:00pm 18.0 S 3 4 1020.9 - - - - - - - - -
30/09:30pm 18.2 S 4 5 1021.1 - - - - - - - - -
30/09:00pm 17.9 S 4 4 1021.1 - - - - - - - - -
30/08:30pm 18.0 S 4 4 1020.9 - - - - - - - - -
30/08:00pm 18.9 S 3 4 1020.8 - - - - - - - - -
30/07:30pm 18.6 S 3 3 1020.6 - - - - - - - - -
30/07:00pm 19.6 SSW 1 2 1020.4 - - - - - - - - -
30/06:30pm 19.6 SSW 1 3 1020.0 - - - - - - - - -
30/06:00pm 19.9 ENE 2 4 1019.7 - - - - - - - - -
30/05:30pm 19.9 ENE 3 5 1019.6 - - - - - - - - -
30/05:00pm 20.7 ENE 1 5 1019.5 - - - - - - - - -
30/04:30pm 20.4 SE 1 6 1019.5 - - - - - - - - -
30/04:00pm 20.4 SSE 2 6 1019.5 - - - - - - - - -
30/03:30pm 20.4 S 2 5 1019.2 - - - - - - - - -
30/03:00pm 20.7 ESE 2 7 1019.2 - - - - - - - - -
30/02:30pm 21.2 S 2 6 1019.4 - - - - - - - - -
30/02:00pm 20.3 ENE 5 8 1019.7 - - - - - - - - -
30/01:30pm 21.4 ENE 2 5 1019.9 - - - - - - - - -
30/01:00pm 20.4 NE 2 6 1020.5 - - - - - - - - -
30/12:30pm 20.0 ENE 3 5 1021.2 - - - - - - - - -
30/12:00pm 20.5 S 2 6 1021.8 - - - - - - - - -
30/11:30am 19.4 S 6 9 1022.3 - - - - - - - - -
30/11:00am 19.0 S 6 8 1022.6 - - - - - - - - -
30/10:30am 18.9 S 5 7 1023.2 - - - - - - - - -
30/10:00am 18.6 S 5 8 1023.5 - - - - - - - - -
30/09:30am 18.5 S 2 4 1023.7 - - - - - - - - -
30/09:00am 18.3 NE 1 2 1023.7 - - - - - - - - -
30/08:30am 18.4 SE 1 2 1023.6 - - - - - - - - -
30/08:00am 15.8 S 3 5 1023.4 - - - - - - - - -
30/07:30am 15.1 S 4 6 1023.1 - - - - - - - - -
30/07:00am 14.4 S 6 8 1022.7 - - - - - - - - -
30/06:30am 14.2 S 5 7 1022.3 - - - - - - - - -
30/06:00am 14.2 S 4 7 1021.9 - - - - - - - - -
30/05:30am 15.4 S 4 5 1021.6 - - - - - - - - -
30/05:00am 15.9 S 3 4 1021.5 - - - - - - - - -
30/04:30am 15.8 S 3 5 1021.3 - - - - - - - - -
30/04:00am 15.7 CALM 0 2 1021.1 - - - - - - - - -
30/03:30am 15.6 SW 1 2 1021.1 - - - - - - - - -
30/03:00am 15.4 SW 1 2 1021.1 - - - - - - - - -
30/02:30am 15.6 SW 1 2 1021.2 - - - - - - - - -
30/02:00am 15.9 SW 1 2 1021.3 - - - - - - - - -
30/01:30am 15.9 SW 2 2 1021.3 - - - - - - - - -
30/01:00am 16.1 W 1 2 1021.4 - - - - - - - - -
30/12:30am 16.7 SSW 1 2 1021.7 - - - - - - - - -
30/12:00am 17.6 SSW 1 2 1021.6 - - - - - - - - -
 
Date/Time
EST
Temp

°C
Wind Pressure Rain
since 9am
mm
Weather Cloud Vis
km
Sea
Height
m
Swell
Dir
 
Speed
knots
Gust
knots
hPa Trend Height
m
Period
s
Dir
29/11:30pm 18.1 S 2 2 1021.6 - - - - - - - - -
29/11:00pm 17.4 SW 1 2 1021.6 - - - - - - - - -
29/10:30pm 18.6 NNW 3 5 1021.6 - - - - - - - - -
29/10:00pm 18.6 NNW 3 4 1021.7 - - - - - - - - -
29/09:30pm 18.6 NNW 3 4 1021.6 - - - - - - - - -
29/09:00pm 19.2 N 4 8 1021.3 - - - - - - - - -
29/08:30pm 19.8 NNE 6 8 1021.2 - - - - - - - - -
29/08:00pm 19.7 NNE 6 8 1021.4 - - - - - - - - -
29/07:30pm 19.7 NNE 5 7 1021.3 - - - - - - - - -
29/07:00pm 19.7 NNE 5 8 1021.0 - - - - - - - - -
29/06:30pm 19.8 NE 5 8 1020.7 - - - - - - - - -
29/06:00pm 19.8 NE 5 8 1020.5 - - - - - - - - -
29/05:30pm 19.9 NNE 5 8 1020.2 - - - - - - - - -
29/05:00pm 20.1 NNE 5 8 1019.9 - - - - - - - - -
29/04:30pm 20.3 NNE 6 10 1019.8 - - - - - - - - -
29/04:00pm 20.1 NE 5 6 1019.9 - - - - - - - - -
29/03:30pm 20.0 NE 4 5 1020.0 - - - - - - - - -
29/03:00pm 20.1 NE 4 5 1020.1 - - - - - - - - -
29/02:30pm 19.8 ENE 4 5 1020.3 - - - - - - - - -
29/02:00pm 19.9 ENE 3 5 1020.4 - - - - - - - - -
29/01:30pm 19.8 ENE 3 5 1020.6 - - - - - - - - -
29/01:00pm 19.4 E 3 4 1021.1 - - - - - - - - -
29/12:30pm 19.5 E 3 4 1021.4 - - - - - - - - -
29/12:00pm 19.6 ENE 2 4 1021.9 - - - - - - - - -
29/11:30am 19.7 ENE 3 4 1022.4 - - - - - - - - -
29/11:00am 19.0 E 3 5 1022.9 - - - - - - - - -
29/10:30am 19.6 S 1 4 1023.2 - - - - - - - - -
29/10:00am 19.2 S 2 4 1023.5 - - - - - - - - -
29/09:30am 18.4 SSE 3 5 1023.7 - - - - - - - - -
29/09:00am 18.1 SSE 3 4 1023.8 - - - - - - - - -
29/08:30am 17.8 S 1 3 1023.7 - - - - - - - - -
29/08:00am 16.1 W 1 2 1023.6 - - - - - - - - -
29/07:30am 15.7 WSW 1 2 1023.3 - - - - - - - - -
29/07:00am 15.3 WSW 1 2 1023.0 - - - - - - - - -
29/06:30am 16.2 S 3 4 1022.5 - - - - - - - - -
29/06:00am 16.1 S 4 5 1022.4 - - - - - - - - -
29/05:30am 15.9 S 3 5 1022.1 - - - - - - - - -
29/05:00am 15.7 S 2 4 1021.8 - - - - - - - - -
29/04:30am 15.6 S 4 5 1021.5 - - - - - - - - -
29/04:00am 15.7 S 4 6 1021.1 - - - - - - - - -
29/03:30am 16.2 S 5 5 1020.9 - - - - - - - - -
29/03:00am 16.3 S 4 5 1020.8 - - - - - - - - -
29/02:30am 16.7 S 3 5 1021.0 - - - - - - - - -
29/02:00am 17.0 S 2 3 1021.0 - - - - - - - - -
29/01:30am 17.1 S 2 3 1021.2 - - - - - - - - -
29/01:00am 17.1 S 4 5 1021.3 - - - - - - - - -
29/12:30am 17.5 S 3 4 1021.5 - - - - - - - - -
29/12:00am 17.4 S 4 5 1021.7 - - - - - - - - -
 
Date/Time
EST
Temp

°C
Wind Pressure Rain
since 9am
mm
Weather Cloud Vis
km
Sea
Height
m
Swell
Dir
 
Speed
knots
Gust
knots
hPa Trend Height
m
Period
s
Dir
28/11:30pm 17.7 S 3 5 1021.8 - - - - - - - - -
28/11:00pm 18.2 S 2 4 1021.8 - - - - - - - - -
28/10:30pm 17.9 SW 1 2 1021.8 - - - - - - - - -
28/10:00pm 19.9 ENE 2 3 1021.8 - - - - - - - - -
28/09:30pm 19.9 E 5 7 1021.6 - - - - - - - - -
28/09:00pm 20.0 E 4 6 1021.5 - - - - - - - - -
28/08:30pm 19.9 E 4 7 1021.4 - - - - - - - - -
28/08:00pm 19.8 E 4 6 1021.2 - - - - - - - - -
28/07:30pm 19.7 ENE 4 6 1021.1 - - - - - - - - -
28/07:00pm 19.8 ENE 4 6 1020.8 - - - - - - - - -
28/06:30pm 19.8 ENE 5 9 1020.5 - - - - - - - - -
28/06:00pm 20.0 ENE 6 10 1020.2 - - - - - - - - -
28/05:30pm 19.9 ENE 7 10 1020.0 - - - - - - - - -
28/05:00pm 20.0 ENE 6 10 1019.9 - - - - - - - - -
28/04:30pm 20.2 ENE 6 9 1019.6 - - - - - - - - -
28/04:00pm 20.1 ENE 6 9 1019.5 - - - - - - - - -
28/03:30pm 20.4 ENE 6 9 1019.4 - - - - - - - - -
28/03:00pm 20.5 NE 3 7 1019.5 - - - - - - - - -
28/02:30pm 20.7 SW 2 5 1019.9 - - - - - - - - -
28/02:00pm 21.0 SW 2 5 1020.3 - - - - - - - - -
28/01:30pm 20.4 WSW 3 6 1020.8 - - - - - - - - -
28/01:00pm 20.5 SW 1 4 1021.4 - - - - - - - - -
28/12:30pm 20.3 S 2 5 1021.9 - - - - - - - - -
28/12:00pm 19.9 S 6 9 1022.4 - - - - - - - - -
28/11:30am 18.9 S 6 10 1022.9 - - - - - - - - -
28/11:00am 18.8 S 6 9 1023.4 - - - - - - - - -
28/10:30am 18.5 S 5 9 1023.6 - - - - - - - - -
28/10:00am 18.3 S 5 8 1023.8 - - - - - - - - -
28/09:30am 18.3 S 4 7 1023.9 - - - - - - - - -
28/09:00am 17.8 S 3 7 1023.8 - - - - - - - - -
28/08:30am 16.2 S 4 6 1023.5 - - - - - - - - -
28/08:00am 15.3 S 4 6 1023.3 - - - - - - - - -
28/07:30am 15.2 S 4 6 1022.9 - - - - - - - - -

Other Formats:

Comma delimited format used in spreadsheet applications
http://www.bom.gov.au/fwo/IDQ60701/IDQ60701.95298.axf

JavaScript Object Notation format (JSON) in row-major order
http://www.bom.gov.au/fwo/IDQ60701/IDQ60701.95298.json